sensor_id;sensor_type;location;lat;lon;timestamp;P1;durP1;ratioP1;P2;durP2;ratioP2
66380;SDS011;53177;52.648;1.214;2024-01-30T00:01:00;25.50;;;12.80;;
66380;SDS011;53177;52.648;1.214;2024-01-30T00:03:25;27.37;;;14.83;;
66380;SDS011;53177;52.648;1.214;2024-01-30T00:05:51;28.35;;;13.07;;
66380;SDS011;53177;52.648;1.214;2024-01-30T00:08:16;30.83;;;13.50;;
66380;SDS011;53177;52.648;1.214;2024-01-30T00:10:42;29.67;;;13.80;;
66380;SDS011;53177;52.648;1.214;2024-01-30T00:13:07;25.33;;;12.87;;
66380;SDS011;53177;52.648;1.214;2024-01-30T00:15:32;27.52;;;13.55;;
66380;SDS011;53177;52.648;1.214;2024-01-30T00:17:58;25.27;;;12.80;;
66380;SDS011;53177;52.648;1.214;2024-01-30T00:20:23;23.97;;;12.80;;
66380;SDS011;53177;52.648;1.214;2024-01-30T00:22:49;27.10;;;13.52;;
66380;SDS011;53177;52.648;1.214;2024-01-30T00:25:15;28.60;;;13.43;;
66380;SDS011;53177;52.648;1.214;2024-01-30T00:27:40;25.80;;;12.63;;
66380;SDS011;53177;52.648;1.214;2024-01-30T00:30:05;28.17;;;13.07;;
66380;SDS011;53177;52.648;1.214;2024-01-30T00:32:31;25.45;;;13.07;;
66380;SDS011;53177;52.648;1.214;2024-01-30T00:34:57;29.13;;;13.87;;
66380;SDS011;53177;52.648;1.214;2024-01-30T00:37:22;28.10;;;13.70;;
66380;SDS011;53177;52.648;1.214;2024-01-30T00:39:48;27.95;;;13.15;;
66380;SDS011;53177;52.648;1.214;2024-01-30T00:42:14;26.20;;;13.37;;
66380;SDS011;53177;52.648;1.214;2024-01-30T00:44:40;29.90;;;15.15;;
66380;SDS011;53177;52.648;1.214;2024-01-30T00:47:06;27.70;;;13.40;;
66380;SDS011;53177;52.648;1.214;2024-01-30T00:49:33;28.02;;;14.20;;
66380;SDS011;53177;52.648;1.214;2024-01-30T00:51:58;33.93;;;14.40;;
66380;SDS011;53177;52.648;1.214;2024-01-30T00:54:24;27.88;;;13.50;;
66380;SDS011;53177;52.648;1.214;2024-01-30T00:56:49;29.97;;;12.50;;
66380;SDS011;53177;52.648;1.214;2024-01-30T00:59:14;25.23;;;12.80;;
66380;SDS011;53177;52.648;1.214;2024-01-30T01:01:40;28.47;;;12.60;;
66380;SDS011;53177;52.648;1.214;2024-01-30T01:04:05;29.60;;;12.87;;
66380;SDS011;53177;52.648;1.214;2024-01-30T01:06:32;28.45;;;13.13;;
66380;SDS011;53177;52.648;1.214;2024-01-30T01:08:57;29.00;;;12.93;;
66380;SDS011;53177;52.648;1.214;2024-01-30T01:11:23;29.27;;;13.30;;
66380;SDS011;53177;52.648;1.214;2024-01-30T01:13:48;26.93;;;11.87;;
66380;SDS011;53177;52.648;1.214;2024-01-30T01:16:14;29.70;;;13.85;;
66380;SDS011;53177;52.648;1.214;2024-01-30T01:18:39;28.20;;;13.10;;
66380;SDS011;53177;52.648;1.214;2024-01-30T01:21:04;26.53;;;13.07;;
66380;SDS011;53177;52.648;1.214;2024-01-30T01:23:31;29.48;;;15.30;;
66380;SDS011;53177;52.648;1.214;2024-01-30T01:25:57;31.40;;;14.88;;
66380;SDS011;53177;52.648;1.214;2024-01-30T01:28:24;29.52;;;13.13;;
66380;SDS011;53177;52.648;1.214;2024-01-30T01:30:50;32.50;;;13.07;;
66380;SDS011;53177;52.648;1.214;2024-01-30T01:33:16;28.95;;;13.32;;
66380;SDS011;53177;52.648;1.214;2024-01-30T01:35:42;28.13;;;13.10;;
66380;SDS011;53177;52.648;1.214;2024-01-30T01:38:09;27.48;;;13.50;;
66380;SDS011;53177;52.648;1.214;2024-01-30T01:40:35;26.15;;;12.73;;
66380;SDS011;53177;52.648;1.214;2024-01-30T01:43:02;33.10;;;14.83;;
66380;SDS011;53177;52.648;1.214;2024-01-30T01:45:28;29.75;;;14.07;;
66380;SDS011;53177;52.648;1.214;2024-01-30T01:47:53;28.57;;;12.73;;
66380;SDS011;53177;52.648;1.214;2024-01-30T01:50:20;28.23;;;13.20;;
66380;SDS011;53177;52.648;1.214;2024-01-30T01:52:50;27.33;;;12.43;;
66380;SDS011;53177;52.648;1.214;2024-01-30T01:55:16;26.42;;;12.43;;
66380;SDS011;53177;52.648;1.214;2024-01-30T01:57:44;24.30;;;12.48;;
66380;SDS011;53177;52.648;1.214;2024-01-30T02:00:10;27.05;;;12.55;;
66380;SDS011;53177;52.648;1.214;2024-01-30T02:02:37;28.15;;;13.30;;
66380;SDS011;53177;52.648;1.214;2024-01-30T02:05:06;31.30;;;13.63;;
66380;SDS011;53177;52.648;1.214;2024-01-30T02:07:33;29.27;;;13.30;;
66380;SDS011;53177;52.648;1.214;2024-01-30T02:09:58;27.07;;;13.87;;
66380;SDS011;53177;52.648;1.214;2024-01-30T02:12:23;32.40;;;13.85;;
66380;SDS011;53177;52.648;1.214;2024-01-30T02:14:49;32.20;;;15.47;;
66380;SDS011;53177;52.648;1.214;2024-01-30T02:17:15;32.85;;;14.13;;
66380;SDS011;53177;52.648;1.214;2024-01-30T02:19:41;32.63;;;14.93;;
66380;SDS011;53177;52.648;1.214;2024-01-30T02:22:07;34.13;;;14.57;;
66380;SDS011;53177;52.648;1.214;2024-01-30T02:24:34;28.02;;;14.52;;
66380;SDS011;53177;52.648;1.214;2024-01-30T02:26:59;30.40;;;14.13;;
66380;SDS011;53177;52.648;1.214;2024-01-30T02:29:25;32.40;;;13.80;;
66380;SDS011;53177;52.648;1.214;2024-01-30T02:31:50;28.73;;;14.33;;
66380;SDS011;53177;52.648;1.214;2024-01-30T02:34:16;31.70;;;16.30;;
66380;SDS011;53177;52.648;1.214;2024-01-30T02:36:44;30.90;;;13.90;;
66380;SDS011;53177;52.648;1.214;2024-01-30T02:39:10;31.67;;;13.60;;
66380;SDS011;53177;52.648;1.214;2024-01-30T02:41:36;31.55;;;14.38;;
66380;SDS011;53177;52.648;1.214;2024-01-30T02:44:02;29.30;;;14.37;;
66380;SDS011;53177;52.648;1.214;2024-01-30T02:46:30;31.73;;;14.07;;
66380;SDS011;53177;52.648;1.214;2024-01-30T02:48:55;31.70;;;13.90;;
66380;SDS011;53177;52.648;1.214;2024-01-30T02:51:21;29.77;;;13.10;;
66380;SDS011;53177;52.648;1.214;2024-01-30T02:53:46;32.10;;;13.60;;
66380;SDS011;53177;52.648;1.214;2024-01-30T02:56:12;31.77;;;13.33;;
66380;SDS011;53177;52.648;1.214;2024-01-30T02:58:39;34.33;;;14.85;;
66380;SDS011;53177;52.648;1.214;2024-01-30T03:01:04;27.40;;;13.43;;
66380;SDS011;53177;52.648;1.214;2024-01-30T03:03:30;34.27;;;14.47;;
66380;SDS011;53177;52.648;1.214;2024-01-30T03:05:55;34.13;;;14.87;;
66380;SDS011;53177;52.648;1.214;2024-01-30T03:08:21;34.95;;;15.38;;
66380;SDS011;53177;52.648;1.214;2024-01-30T03:10:46;31.00;;;13.82;;
66380;SDS011;53177;52.648;1.214;2024-01-30T03:13:11;26.43;;;12.60;;
66380;SDS011;53177;52.648;1.214;2024-01-30T03:15:37;25.20;;;12.93;;
66380;SDS011;53177;52.648;1.214;2024-01-30T03:18:03;35.23;;;13.10;;
66380;SDS011;53177;52.648;1.214;2024-01-30T03:20:29;28.63;;;13.67;;
66380;SDS011;53177;52.648;1.214;2024-01-30T03:22:55;27.20;;;13.70;;
66380;SDS011;53177;52.648;1.214;2024-01-30T03:25:21;27.15;;;12.70;;
66380;SDS011;53177;52.648;1.214;2024-01-30T03:27:46;29.37;;;13.13;;
66380;SDS011;53177;52.648;1.214;2024-01-30T03:30:12;26.70;;;12.77;;
66380;SDS011;53177;52.648;1.214;2024-01-30T03:32:38;32.25;;;13.15;;
66380;SDS011;53177;52.648;1.214;2024-01-30T03:35:03;28.57;;;12.37;;
66380;SDS011;53177;52.648;1.214;2024-01-30T03:37:29;29.80;;;13.67;;
66380;SDS011;53177;52.648;1.214;2024-01-30T03:39:54;31.70;;;13.15;;
66380;SDS011;53177;52.648;1.214;2024-01-30T03:42:20;30.17;;;12.30;;
66380;SDS011;53177;52.648;1.214;2024-01-30T03:44:45;28.10;;;12.23;;
66380;SDS011;53177;52.648;1.214;2024-01-30T03:47:12;28.42;;;12.80;;
66380;SDS011;53177;52.648;1.214;2024-01-30T03:49:37;26.17;;;11.90;;
66380;SDS011;53177;52.648;1.214;2024-01-30T03:52:03;27.37;;;12.57;;
66380;SDS011;53177;52.648;1.214;2024-01-30T03:54:29;28.52;;;11.70;;
66380;SDS011;53177;52.648;1.214;2024-01-30T03:56:54;23.80;;;11.57;;
66380;SDS011;53177;52.648;1.214;2024-01-30T03:59:20;26.98;;;12.63;;
66380;SDS011;53177;52.648;1.214;2024-01-30T04:01:49;27.13;;;11.90;;
66380;SDS011;53177;52.648;1.214;2024-01-30T04:04:16;26.48;;;12.05;;
66380;SDS011;53177;52.648;1.214;2024-01-30T04:06:43;29.58;;;12.90;;
66380;SDS011;53177;52.648;1.214;2024-01-30T04:09:09;30.40;;;11.98;;
66380;SDS011;53177;52.648;1.214;2024-01-30T04:11:34;24.80;;;11.43;;
66380;SDS011;53177;52.648;1.214;2024-01-30T04:14:00;25.73;;;10.53;;
66380;SDS011;53177;52.648;1.214;2024-01-30T04:16:25;28.65;;;12.02;;
66380;SDS011;53177;52.648;1.214;2024-01-30T04:18:51;27.50;;;12.80;;
66380;SDS011;53177;52.648;1.214;2024-01-30T04:21:17;27.25;;;11.00;;
66380;SDS011;53177;52.648;1.214;2024-01-30T04:23:45;24.63;;;10.77;;
66380;SDS011;53177;52.648;1.214;2024-01-30T04:26:10;26.05;;;10.20;;
66380;SDS011;53177;52.648;1.214;2024-01-30T04:28:36;23.80;;;11.07;;
66380;SDS011;53177;52.648;1.214;2024-01-30T04:31:01;27.10;;;11.00;;
66380;SDS011;53177;52.648;1.214;2024-01-30T04:33:27;23.80;;;11.17;;
66380;SDS011;53177;52.648;1.214;2024-01-30T04:35:52;21.43;;;9.90;;
66380;SDS011;53177;52.648;1.214;2024-01-30T04:38:18;27.25;;;9.57;;
66380;SDS011;53177;52.648;1.214;2024-01-30T04:40:44;23.70;;;10.10;;
66380;SDS011;53177;52.648;1.214;2024-01-30T04:43:09;22.97;;;9.47;;
66380;SDS011;53177;52.648;1.214;2024-01-30T04:45:35;23.15;;;9.95;;
66380;SDS011;53177;52.648;1.214;2024-01-30T04:48:00;26.42;;;9.73;;
66380;SDS011;53177;52.648;1.214;2024-01-30T04:50:25;22.87;;;9.17;;
66380;SDS011;53177;52.648;1.214;2024-01-30T04:52:51;27.73;;;11.20;;
66380;SDS011;53177;52.648;1.214;2024-01-30T04:55:17;18.05;;;7.60;;
66380;SDS011;53177;52.648;1.214;2024-01-30T04:57:43;18.50;;;7.18;;
66380;SDS011;53177;52.648;1.214;2024-01-30T05:00:09;17.65;;;6.28;;
66380;SDS011;53177;52.648;1.214;2024-01-30T05:02:35;12.85;;;5.10;;
66380;SDS011;53177;52.648;1.214;2024-01-30T05:05:00;11.80;;;3.83;;
66380;SDS011;53177;52.648;1.214;2024-01-30T05:07:25;8.50;;;2.80;;
66380;SDS011;53177;52.648;1.214;2024-01-30T05:09:51;6.68;;;2.20;;
66380;SDS011;53177;52.648;1.214;2024-01-30T05:12:16;6.90;;;2.10;;
66380;SDS011;53177;52.648;1.214;2024-01-30T05:14:42;8.23;;;2.00;;
66380;SDS011;53177;52.648;1.214;2024-01-30T05:17:07;6.67;;;1.40;;
66380;SDS011;53177;52.648;1.214;2024-01-30T05:19:35;4.75;;;1.25;;
66380;SDS011;53177;52.648;1.214;2024-01-30T05:22:00;5.60;;;1.40;;
66380;SDS011;53177;52.648;1.214;2024-01-30T05:24:26;5.40;;;1.20;;
66380;SDS011;53177;52.648;1.214;2024-01-30T05:26:51;5.70;;;1.13;;
66380;SDS011;53177;52.648;1.214;2024-01-30T05:29:17;4.17;;;0.93;;
66380;SDS011;53177;52.648;1.214;2024-01-30T05:31:43;6.50;;;1.15;;
66380;SDS011;53177;52.648;1.214;2024-01-30T05:34:09;6.37;;;1.40;;
66380;SDS011;53177;52.648;1.214;2024-01-30T05:36:35;4.43;;;0.90;;
66380;SDS011;53177;52.648;1.214;2024-01-30T05:39:01;3.73;;;0.70;;
66380;SDS011;53177;52.648;1.214;2024-01-30T05:41:27;5.72;;;1.23;;
66380;SDS011;53177;52.648;1.214;2024-01-30T05:43:53;4.50;;;0.90;;
66380;SDS011;53177;52.648;1.214;2024-01-30T05:46:18;4.67;;;1.00;;
66380;SDS011;53177;52.648;1.214;2024-01-30T05:48:44;5.97;;;1.27;;
66380;SDS011;53177;52.648;1.214;2024-01-30T05:51:09;3.13;;;0.80;;
66380;SDS011;53177;52.648;1.214;2024-01-30T05:53:35;3.67;;;0.80;;
66380;SDS011;53177;52.648;1.214;2024-01-30T05:56:03;5.55;;;1.00;;
66380;SDS011;53177;52.648;1.214;2024-01-30T05:58:29;5.40;;;1.00;;
66380;SDS011;53177;52.648;1.214;2024-01-30T06:00:56;3.13;;;0.65;;
66380;SDS011;53177;52.648;1.214;2024-01-30T06:03:23;3.38;;;0.80;;
66380;SDS011;53177;52.648;1.214;2024-01-30T06:05:48;4.30;;;0.65;;
66380;SDS011;53177;52.648;1.214;2024-01-30T06:08:14;3.70;;;0.83;;
66380;SDS011;53177;52.648;1.214;2024-01-30T06:10:39;3.23;;;0.90;;
66380;SDS011;53177;52.648;1.214;2024-01-30T06:13:06;5.00;;;1.58;;
66380;SDS011;53177;52.648;1.214;2024-01-30T06:15:31;3.83;;;1.40;;
66380;SDS011;53177;52.648;1.214;2024-01-30T06:17:58;4.20;;;1.20;;
66380;SDS011;53177;52.648;1.214;2024-01-30T06:20:23;5.03;;;1.10;;
66380;SDS011;53177;52.648;1.214;2024-01-30T06:22:49;5.40;;;1.30;;
66380;SDS011;53177;52.648;1.214;2024-01-30T06:25:14;4.97;;;1.53;;
66380;SDS011;53177;52.648;1.214;2024-01-30T06:27:41;4.10;;;1.10;;
66380;SDS011;53177;52.648;1.214;2024-01-30T06:30:06;4.67;;;1.20;;
66380;SDS011;53177;52.648;1.214;2024-01-30T06:32:32;5.18;;;1.67;;
66380;SDS011;53177;52.648;1.214;2024-01-30T06:35:02;4.30;;;1.70;;
66380;SDS011;53177;52.648;1.214;2024-01-30T06:37:28;5.45;;;1.63;;
66380;SDS011;53177;52.648;1.214;2024-01-30T06:39:54;4.13;;;1.67;;
66380;SDS011;53177;52.648;1.214;2024-01-30T06:42:19;4.77;;;1.60;;
66380;SDS011;53177;52.648;1.214;2024-01-30T06:44:45;4.57;;;1.75;;
66380;SDS011;53177;52.648;1.214;2024-01-30T06:47:10;6.10;;;2.03;;
66380;SDS011;53177;52.648;1.214;2024-01-30T06:49:36;6.73;;;1.90;;
66380;SDS011;53177;52.648;1.214;2024-01-30T06:52:07;8.10;;;2.30;;
66380;SDS011;53177;52.648;1.214;2024-01-30T06:54:33;7.10;;;1.90;;
66380;SDS011;53177;52.648;1.214;2024-01-30T06:56:58;6.17;;;1.70;;
66380;SDS011;53177;52.648;1.214;2024-01-30T06:59:24;5.35;;;2.10;;
66380;SDS011;53177;52.648;1.214;2024-01-30T07:01:49;6.03;;;2.20;;
66380;SDS011;53177;52.648;1.214;2024-01-30T07:04:15;6.90;;;2.40;;
66380;SDS011;53177;52.648;1.214;2024-01-30T07:06:41;6.32;;;2.50;;
66380;SDS011;53177;52.648;1.214;2024-01-30T07:09:06;7.13;;;2.90;;
66380;SDS011;53177;52.648;1.214;2024-01-30T07:11:32;7.25;;;2.70;;
66380;SDS011;53177;52.648;1.214;2024-01-30T07:13:57;8.17;;;2.93;;
66380;SDS011;53177;52.648;1.214;2024-01-30T07:16:23;8.48;;;2.80;;
66380;SDS011;53177;52.648;1.214;2024-01-30T07:18:49;8.68;;;2.88;;
66380;SDS011;53177;52.648;1.214;2024-01-30T07:21:15;7.40;;;2.60;;
66380;SDS011;53177;52.648;1.214;2024-01-30T07:23:40;8.15;;;2.40;;
66380;SDS011;53177;52.648;1.214;2024-01-30T07:26:07;8.00;;;2.97;;
66380;SDS011;53177;52.648;1.214;2024-01-30T07:28:33;10.23;;;2.77;;
66380;SDS011;53177;52.648;1.214;2024-01-30T07:30:59;8.77;;;3.22;;
66380;SDS011;53177;52.648;1.214;2024-01-30T07:33:25;7.82;;;2.78;;
66380;SDS011;53177;52.648;1.214;2024-01-30T07:35:54;7.53;;;2.97;;
66380;SDS011;53177;52.648;1.214;2024-01-30T07:38:19;7.35;;;2.65;;
66380;SDS011;53177;52.648;1.214;2024-01-30T07:40:45;9.87;;;3.50;;
66380;SDS011;53177;52.648;1.214;2024-01-30T07:43:11;6.93;;;2.88;;
66380;SDS011;53177;52.648;1.214;2024-01-30T07:45:36;10.55;;;3.85;;
66380;SDS011;53177;52.648;1.214;2024-01-30T07:48:04;13.23;;;3.63;;
66380;SDS011;53177;52.648;1.214;2024-01-30T07:50:30;10.65;;;4.15;;
66380;SDS011;53177;52.648;1.214;2024-01-30T07:52:56;13.80;;;5.90;;
66380;SDS011;53177;52.648;1.214;2024-01-30T07:55:22;9.82;;;4.00;;
66380;SDS011;53177;52.648;1.214;2024-01-30T07:57:53;9.32;;;3.60;;
66380;SDS011;53177;52.648;1.214;2024-01-30T08:00:20;10.98;;;3.70;;
66380;SDS011;53177;52.648;1.214;2024-01-30T08:02:46;10.23;;;3.77;;
66380;SDS011;53177;52.648;1.214;2024-01-30T08:05:13;9.30;;;3.63;;
66380;SDS011;53177;52.648;1.214;2024-01-30T08:07:40;10.40;;;3.40;;
66380;SDS011;53177;52.648;1.214;2024-01-30T08:10:08;9.82;;;3.58;;
66380;SDS011;53177;52.648;1.214;2024-01-30T08:12:34;9.70;;;3.50;;
66380;SDS011;53177;52.648;1.214;2024-01-30T08:15:01;9.95;;;3.40;;
66380;SDS011;53177;52.648;1.214;2024-01-30T08:17:26;10.60;;;3.72;;
66380;SDS011;53177;52.648;1.214;2024-01-30T08:19:53;9.40;;;3.55;;
66380;SDS011;53177;52.648;1.214;2024-01-30T08:22:18;10.40;;;3.30;;
66380;SDS011;53177;52.648;1.214;2024-01-30T08:24:44;9.73;;;3.22;;
66380;SDS011;53177;52.648;1.214;2024-01-30T08:27:09;9.27;;;3.40;;
66380;SDS011;53177;52.648;1.214;2024-01-30T08:29:35;10.37;;;3.70;;
66380;SDS011;53177;52.648;1.214;2024-01-30T08:32:01;10.52;;;3.45;;
66380;SDS011;53177;52.648;1.214;2024-01-30T08:34:26;8.57;;;3.10;;
66380;SDS011;53177;52.648;1.214;2024-01-30T08:36:52;9.27;;;2.55;;
66380;SDS011;53177;52.648;1.214;2024-01-30T08:39:18;9.45;;;3.35;;
66380;SDS011;53177;52.648;1.214;2024-01-30T08:41:44;13.32;;;4.82;;
66380;SDS011;53177;52.648;1.214;2024-01-30T08:44:09;14.90;;;5.82;;
66380;SDS011;53177;52.648;1.214;2024-01-30T08:46:36;18.60;;;6.83;;
66380;SDS011;53177;52.648;1.214;2024-01-30T08:49:02;18.00;;;6.82;;
66380;SDS011;53177;52.648;1.214;2024-01-30T08:51:29;17.77;;;7.18;;
66380;SDS011;53177;52.648;1.214;2024-01-30T08:53:54;23.27;;;9.37;;
66380;SDS011;53177;52.648;1.214;2024-01-30T08:56:20;24.00;;;10.57;;
66380;SDS011;53177;52.648;1.214;2024-01-30T08:58:46;27.02;;;11.02;;
66380;SDS011;53177;52.648;1.214;2024-01-30T09:01:11;30.03;;;12.13;;
66380;SDS011;53177;52.648;1.214;2024-01-30T09:03:36;29.77;;;11.60;;
66380;SDS011;53177;52.648;1.214;2024-01-30T09:06:08;30.45;;;12.13;;
66380;SDS011;53177;52.648;1.214;2024-01-30T09:08:34;29.38;;;12.45;;
66380;SDS011;53177;52.648;1.214;2024-01-30T09:10:59;33.93;;;12.60;;
66380;SDS011;53177;52.648;1.214;2024-01-30T09:13:25;32.97;;;12.80;;
66380;SDS011;53177;52.648;1.214;2024-01-30T09:15:50;32.50;;;12.97;;
66380;SDS011;53177;52.648;1.214;2024-01-30T09:18:15;30.80;;;11.95;;
66380;SDS011;53177;52.648;1.214;2024-01-30T09:20:41;28.07;;;11.30;;
66380;SDS011;53177;52.648;1.214;2024-01-30T09:23:06;28.70;;;11.17;;
66380;SDS011;53177;52.648;1.214;2024-01-30T09:25:32;27.47;;;11.60;;
66380;SDS011;53177;52.648;1.214;2024-01-30T09:27:58;29.35;;;11.60;;
66380;SDS011;53177;52.648;1.214;2024-01-30T09:30:24;28.15;;;11.32;;
66380;SDS011;53177;52.648;1.214;2024-01-30T09:32:49;27.27;;;10.40;;
66380;SDS011;53177;52.648;1.214;2024-01-30T09:35:14;26.77;;;9.37;;
66380;SDS011;53177;52.648;1.214;2024-01-30T09:37:40;29.23;;;9.70;;
66380;SDS011;53177;52.648;1.214;2024-01-30T09:40:07;25.48;;;9.02;;
66380;SDS011;53177;52.648;1.214;2024-01-30T09:42:33;28.27;;;9.35;;
66380;SDS011;53177;52.648;1.214;2024-01-30T09:45:04;26.27;;;9.17;;
66380;SDS011;53177;52.648;1.214;2024-01-30T09:47:31;22.98;;;8.15;;
66380;SDS011;53177;52.648;1.214;2024-01-30T09:49:57;26.88;;;8.75;;
66380;SDS011;53177;52.648;1.214;2024-01-30T09:52:23;22.77;;;8.30;;
66380;SDS011;53177;52.648;1.214;2024-01-30T09:54:49;24.70;;;8.40;;
66380;SDS011;53177;52.648;1.214;2024-01-30T09:57:16;22.25;;;8.25;;
66380;SDS011;53177;52.648;1.214;2024-01-30T09:59:41;24.80;;;8.80;;
66380;SDS011;53177;52.648;1.214;2024-01-30T10:02:08;25.10;;;8.68;;
66380;SDS011;53177;52.648;1.214;2024-01-30T10:04:33;24.63;;;8.87;;
66380;SDS011;53177;52.648;1.214;2024-01-30T10:07:01;24.23;;;9.38;;
66380;SDS011;53177;52.648;1.214;2024-01-30T10:09:27;22.65;;;8.70;;
66380;SDS011;53177;52.648;1.214;2024-01-30T10:11:53;26.67;;;8.93;;
66380;SDS011;53177;52.648;1.214;2024-01-30T10:14:18;22.67;;;8.13;;
66380;SDS011;53177;52.648;1.214;2024-01-30T10:16:45;25.10;;;8.80;;
66380;SDS011;53177;52.648;1.214;2024-01-30T10:19:11;21.75;;;8.20;;
66380;SDS011;53177;52.648;1.214;2024-01-30T10:21:38;23.97;;;8.60;;
66380;SDS011;53177;52.648;1.214;2024-01-30T10:24:04;22.77;;;7.93;;
66380;SDS011;53177;52.648;1.214;2024-01-30T10:26:30;19.13;;;6.97;;
66380;SDS011;53177;52.648;1.214;2024-01-30T10:28:59;20.60;;;7.18;;
66380;SDS011;53177;52.648;1.214;2024-01-30T10:31:25;18.17;;;6.82;;
66380;SDS011;53177;52.648;1.214;2024-01-30T10:33:51;22.80;;;7.40;;
66380;SDS011;53177;52.648;1.214;2024-01-30T10:36:16;21.03;;;7.70;;
66380;SDS011;53177;52.648;1.214;2024-01-30T10:38:43;23.40;;;7.80;;
66380;SDS011;53177;52.648;1.214;2024-01-30T10:41:11;18.08;;;7.18;;
66380;SDS011;53177;52.648;1.214;2024-01-30T10:43:42;20.98;;;8.05;;
66380;SDS011;53177;52.648;1.214;2024-01-30T10:46:19;20.43;;;7.73;;
66380;SDS011;53177;52.648;1.214;2024-01-30T10:48:58;22.80;;;8.63;;
66380;SDS011;53177;52.648;1.214;2024-01-30T10:51:26;23.48;;;8.40;;
66380;SDS011;53177;52.648;1.214;2024-01-30T10:53:52;24.33;;;7.90;;
66380;SDS011;53177;52.648;1.214;2024-01-30T10:56:18;20.90;;;8.05;;
66380;SDS011;53177;52.648;1.214;2024-01-30T10:58:52;19.90;;;7.80;;
66380;SDS011;53177;52.648;1.214;2024-01-30T11:01:21;22.35;;;7.97;;
66380;SDS011;53177;52.648;1.214;2024-01-30T11:03:54;22.17;;;7.80;;
66380;SDS011;53177;52.648;1.214;2024-01-30T11:06:22;20.63;;;7.80;;
66380;SDS011;53177;52.648;1.214;2024-01-30T11:09:04;19.42;;;7.50;;
66380;SDS011;53177;52.648;1.214;2024-01-30T11:14:27;20.27;;;7.32;;
66380;SDS011;53177;52.648;1.214;2024-01-30T11:16:59;20.83;;;7.13;;
66380;SDS011;53177;52.648;1.214;2024-01-30T11:19:25;21.27;;;7.35;;
66380;SDS011;53177;52.648;1.214;2024-01-30T11:21:54;20.10;;;6.85;;
66380;SDS011;53177;52.648;1.214;2024-01-30T11:24:22;21.30;;;7.13;;
66380;SDS011;53177;52.648;1.214;2024-01-30T11:26:49;22.83;;;7.03;;
66380;SDS011;53177;52.648;1.214;2024-01-30T11:29:24;20.65;;;7.05;;
66380;SDS011;53177;52.648;1.214;2024-01-30T11:31:56;19.92;;;6.20;;
66380;SDS011;53177;52.648;1.214;2024-01-30T11:34:23;22.35;;;6.90;;
66380;SDS011;53177;52.648;1.214;2024-01-30T11:36:52;17.50;;;6.17;;
66380;SDS011;53177;52.648;1.214;2024-01-30T11:39:25;16.33;;;5.95;;
66380;SDS011;53177;52.648;1.214;2024-01-30T11:41:54;18.77;;;6.53;;
66380;SDS011;53177;52.648;1.214;2024-01-30T11:44:20;17.27;;;6.18;;
66380;SDS011;53177;52.648;1.214;2024-01-30T11:46:47;17.80;;;5.87;;
66380;SDS011;53177;52.648;1.214;2024-01-30T11:49:13;15.85;;;5.30;;
66380;SDS011;53177;52.648;1.214;2024-01-30T11:51:39;16.58;;;5.68;;
66380;SDS011;53177;52.648;1.214;2024-01-30T11:54:05;16.10;;;5.57;;
66380;SDS011;53177;52.648;1.214;2024-01-30T11:56:30;14.13;;;5.07;;
66380;SDS011;53177;52.648;1.214;2024-01-30T11:58:56;13.80;;;5.33;;
66380;SDS011;53177;52.648;1.214;2024-01-30T12:01:21;17.37;;;5.63;;
66380;SDS011;53177;52.648;1.214;2024-01-30T12:03:51;13.43;;;4.97;;
66380;SDS011;53177;52.648;1.214;2024-01-30T12:06:16;13.75;;;5.43;;
66380;SDS011;53177;52.648;1.214;2024-01-30T12:08:42;13.00;;;4.90;;
66380;SDS011;53177;52.648;1.214;2024-01-30T12:11:07;13.15;;;5.00;;
66380;SDS011;53177;52.648;1.214;2024-01-30T12:13:33;14.70;;;4.87;;
66380;SDS011;53177;52.648;1.214;2024-01-30T12:16:00;14.02;;;5.25;;
66380;SDS011;53177;52.648;1.214;2024-01-30T12:18:26;16.27;;;5.45;;
66380;SDS011;53177;52.648;1.214;2024-01-30T12:21:01;16.27;;;5.27;;
66380;SDS011;53177;52.648;1.214;2024-01-30T12:23:27;15.15;;;6.22;;
66380;SDS011;53177;52.648;1.214;2024-01-30T12:25:53;15.48;;;5.53;;
66380;SDS011;53177;52.648;1.214;2024-01-30T12:28:19;13.70;;;5.70;;
66380;SDS011;53177;52.648;1.214;2024-01-30T12:30:45;16.52;;;7.05;;
66380;SDS011;53177;52.648;1.214;2024-01-30T12:33:15;14.10;;;5.80;;
66380;SDS011;53177;52.648;1.214;2024-01-30T12:35:45;16.45;;;5.60;;
66380;SDS011;53177;52.648;1.214;2024-01-30T12:38:10;12.02;;;4.10;;
66380;SDS011;53177;52.648;1.214;2024-01-30T12:40:36;10.63;;;3.20;;
66380;SDS011;53177;52.648;1.214;2024-01-30T12:43:01;10.80;;;3.10;;
66380;SDS011;53177;52.648;1.214;2024-01-30T12:45:28;11.43;;;2.78;;
66380;SDS011;53177;52.648;1.214;2024-01-30T12:47:53;8.83;;;3.00;;
66380;SDS011;53177;52.648;1.214;2024-01-30T12:50:19;10.00;;;2.95;;
66380;SDS011;53177;52.648;1.214;2024-01-30T12:52:44;9.07;;;2.50;;
66380;SDS011;53177;52.648;1.214;2024-01-30T12:55:10;11.70;;;3.17;;
66380;SDS011;53177;52.648;1.214;2024-01-30T12:57:35;10.27;;;3.00;;
66380;SDS011;53177;52.648;1.214;2024-01-30T13:00:01;7.38;;;2.67;;
66380;SDS011;53177;52.648;1.214;2024-01-30T13:02:28;9.02;;;3.30;;
66380;SDS011;53177;52.648;1.214;2024-01-30T13:04:59;12.43;;;3.93;;
66380;SDS011;53177;52.648;1.214;2024-01-30T13:07:25;7.20;;;2.50;;
66380;SDS011;53177;52.648;1.214;2024-01-30T13:09:50;7.83;;;2.90;;
66380;SDS011;53177;52.648;1.214;2024-01-30T13:12:16;7.87;;;2.80;;
66380;SDS011;53177;52.648;1.214;2024-01-30T13:14:42;10.25;;;2.90;;
66380;SDS011;53177;52.648;1.214;2024-01-30T13:17:07;8.10;;;2.65;;
66380;SDS011;53177;52.648;1.214;2024-01-30T13:19:33;9.33;;;2.60;;
66380;SDS011;53177;52.648;1.214;2024-01-30T13:21:58;7.15;;;3.00;;
66380;SDS011;53177;52.648;1.214;2024-01-30T13:24:24;8.10;;;3.20;;
66380;SDS011;53177;52.648;1.214;2024-01-30T13:26:49;10.43;;;3.10;;
66380;SDS011;53177;52.648;1.214;2024-01-30T13:29:15;10.33;;;3.63;;
66380;SDS011;53177;52.648;1.214;2024-01-30T13:31:40;10.85;;;4.28;;
66380;SDS011;53177;52.648;1.214;2024-01-30T13:34:06;9.23;;;3.00;;
66380;SDS011;53177;52.648;1.214;2024-01-30T13:36:34;10.23;;;3.53;;
66380;SDS011;53177;52.648;1.214;2024-01-30T13:39:00;8.90;;;2.90;;
66380;SDS011;53177;52.648;1.214;2024-01-30T13:41:25;5.43;;;2.07;;
66380;SDS011;53177;52.648;1.214;2024-01-30T13:43:52;9.27;;;1.80;;
66380;SDS011;53177;52.648;1.214;2024-01-30T13:46:18;8.60;;;2.15;;
66380;SDS011;53177;52.648;1.214;2024-01-30T13:48:44;8.40;;;1.87;;
66380;SDS011;53177;52.648;1.214;2024-01-30T13:51:09;7.23;;;1.37;;
66380;SDS011;53177;52.648;1.214;2024-01-30T13:53:37;12.07;;;1.60;;
66380;SDS011;53177;52.648;1.214;2024-01-30T13:56:02;6.80;;;1.98;;
66380;SDS011;53177;52.648;1.214;2024-01-30T13:58:28;4.47;;;1.73;;
66380;SDS011;53177;52.648;1.214;2024-01-30T14:00:53;8.25;;;1.85;;
66380;SDS011;53177;52.648;1.214;2024-01-30T14:03:19;5.87;;;2.20;;
66380;SDS011;53177;52.648;1.214;2024-01-30T14:05:44;9.73;;;2.90;;
66380;SDS011;53177;52.648;1.214;2024-01-30T14:08:09;10.73;;;3.57;;
66380;SDS011;53177;52.648;1.214;2024-01-30T14:10:35;11.95;;;3.78;;
66380;SDS011;53177;52.648;1.214;2024-01-30T14:13:02;12.83;;;3.53;;
66380;SDS011;53177;52.648;1.214;2024-01-30T14:15:27;9.95;;;2.25;;
66380;SDS011;53177;52.648;1.214;2024-01-30T14:17:53;5.23;;;1.10;;
66380;SDS011;53177;52.648;1.214;2024-01-30T14:20:19;6.23;;;1.17;;
66380;SDS011;53177;52.648;1.214;2024-01-30T14:22:44;8.00;;;1.10;;
66380;SDS011;53177;52.648;1.214;2024-01-30T14:25:11;5.25;;;1.17;;
66380;SDS011;53177;52.648;1.214;2024-01-30T14:27:37;4.50;;;0.90;;
66380;SDS011;53177;52.648;1.214;2024-01-30T14:30:03;4.80;;;0.90;;